sensor_id;sensor_type;location;lat;lon;timestamp;pressure;altitude;pressure_sealevel;temperature;humidity
71457;BME280;59263;48.160;11.752;2023-05-09T00:02:24;96245.72;;;10.55;100.00
71457;BME280;59263;48.160;11.752;2023-05-09T00:04:49;96240.78;;;10.52;100.00
71457;BME280;59263;48.160;11.752;2023-05-09T00:07:15;96234.53;;;10.54;100.00
71457;BME280;59263;48.160;11.752;2023-05-09T00:09:41;96230.44;;;10.52;100.00
71457;BME280;59263;48.160;11.752;2023-05-09T00:12:06;96218.88;;;10.46;100.00
71457;BME280;59263;48.160;11.752;2023-05-09T00:14:32;96182.72;;;10.25;100.00
71457;BME280;59263;48.160;11.752;2023-05-09T00:16:58;96220.09;;;10.52;100.00
71457;BME280;59263;48.160;11.752;2023-05-09T00:19:23;96228.56;;;10.54;100.00
71457;BME280;59263;48.160;11.752;2023-05-09T00:21:49;96214.25;;;10.50;100.00
71457;BME280;59263;48.160;11.752;2023-05-09T00:24:14;96221.72;;;10.53;100.00
71457;BME280;59263;48.160;11.752;2023-05-09T00:26:39;96228.28;;;10.57;100.00
71457;BME280;59263;48.160;11.752;2023-05-09T00:29:05;96186.94;;;10.26;100.00
71457;BME280;59263;48.160;11.752;2023-05-09T00:31:30;96226.06;;;10.43;100.00
71457;BME280;59263;48.160;11.752;2023-05-09T00:33:55;96218.41;;;10.31;100.00
71457;BME280;59263;48.160;11.752;2023-05-09T00:36:21;96196.94;;;10.10;100.00
71457;BME280;59263;48.160;11.752;2023-05-09T00:38:46;96218.03;;;10.15;100.00
71457;BME280;59263;48.160;11.752;2023-05-09T00:41:11;96219.75;;;10.05;100.00
71457;BME280;59263;48.160;11.752;2023-05-09T00:43:37;96147.31;;;9.55;100.00
71457;BME280;59263;48.160;11.752;2023-05-09T00:46:03;96200.38;;;9.89;100.00
71457;BME280;59263;48.160;11.752;2023-05-09T00:48:28;96187.84;;;9.85;100.00
71457;BME280;59263;48.160;11.752;2023-05-09T00:50:54;96194.78;;;9.84;100.00
71457;BME280;59263;48.160;11.752;2023-05-09T00:53:19;96218.22;;;9.92;100.00
71457;BME280;59263;48.160;11.752;2023-05-09T00:55:45;96179.84;;;9.57;100.00
71457;BME280;59263;48.160;11.752;2023-05-09T00:58:11;96208.59;;;9.74;100.00
71457;BME280;59263;48.160;11.752;2023-05-09T01:00:36;96167.56;;;9.50;100.00
71457;BME280;59263;48.160;11.752;2023-05-09T01:03:02;96212.97;;;9.73;100.00
71457;BME280;59263;48.160;11.752;2023-05-09T01:05:35;96208.13;;;9.59;100.00
71457;BME280;59263;48.160;11.752;2023-05-09T01:08:07;96166.19;;;9.25;100.00
71457;BME280;59263;48.160;11.752;2023-05-09T01:10:58;96188.53;;;9.35;100.00
71457;BME280;59263;48.160;11.752;2023-05-09T01:16:49;96210.34;;;9.42;100.00
71457;BME280;59263;48.160;11.752;2023-05-09T01:19:46;96201.88;;;9.40;100.00
71457;BME280;59263;48.160;11.752;2023-05-09T01:22:15;96174.91;;;9.33;100.00
71457;BME280;59263;48.160;11.752;2023-05-09T01:30:50;96195.81;;;9.30;100.00
71457;BME280;59263;48.160;11.752;2023-05-09T01:33:17;96177.00;;;9.18;100.00
71457;BME280;59263;48.160;11.752;2023-05-09T01:35:47;96161.94;;;9.03;100.00
71457;BME280;59263;48.160;11.752;2023-05-09T01:38:16;96198.03;;;9.14;100.00
71457;BME280;59263;48.160;11.752;2023-05-09T01:40:44;96195.13;;;9.07;100.00
71457;BME280;59263;48.160;11.752;2023-05-09T01:43:12;96198.91;;;9.03;100.00
71457;BME280;59263;48.160;11.752;2023-05-09T01:45:40;96190.19;;;9.04;100.00
71457;BME280;59263;48.160;11.752;2023-05-09T01:48:07;96178.75;;;8.97;100.00
71457;BME280;59263;48.160;11.752;2023-05-09T01:50:34;96200.28;;;9.07;100.00
71457;BME280;59263;48.160;11.752;2023-05-09T01:53:01;96196.31;;;9.03;100.00
71457;BME280;59263;48.160;11.752;2023-05-09T01:55:31;96189.78;;;8.99;100.00
71457;BME280;59263;48.160;11.752;2023-05-09T01:57:58;96189.34;;;8.94;100.00
71457;BME280;59263;48.160;11.752;2023-05-09T02:00:24;96200.34;;;8.96;100.00
71457;BME280;59263;48.160;11.752;2023-05-09T02:02:51;96174.25;;;8.78;100.00
71457;BME280;59263;48.160;11.752;2023-05-09T02:05:17;96189.25;;;8.84;100.00
71457;BME280;59263;48.160;11.752;2023-05-09T02:07:44;96147.72;;;8.55;100.00
71457;BME280;59263;48.160;11.752;2023-05-09T02:10:10;96172.28;;;8.70;100.00
71457;BME280;59263;48.160;11.752;2023-05-09T02:12:36;96186.66;;;8.84;100.00
71457;BME280;59263;48.160;11.752;2023-05-09T02:15:03;96165.81;;;8.76;100.00
71457;BME280;59263;48.160;11.752;2023-05-09T02:17:29;96180.06;;;8.91;100.00
71457;BME280;59263;48.160;11.752;2023-05-09T02:19:55;96164.72;;;8.90;100.00
71457;BME280;59263;48.160;11.752;2023-05-09T02:22:20;96136.50;;;8.77;100.00
71457;BME280;59263;48.160;11.752;2023-05-09T02:24:46;96173.84;;;8.94;100.00
71457;BME280;59263;48.160;11.752;2023-05-09T02:27:12;96171.13;;;8.95;100.00
71457;BME280;59263;48.160;11.752;2023-05-09T02:29:45;96147.97;;;8.84;100.00
71457;BME280;59263;48.160;11.752;2023-05-09T02:32:14;96169.75;;;8.91;100.00
71457;BME280;59263;48.160;11.752;2023-05-09T02:34:41;96163.44;;;8.84;100.00
71457;BME280;59263;48.160;11.752;2023-05-09T02:37:09;96142.28;;;8.69;100.00
71457;BME280;59263;48.160;11.752;2023-05-09T02:39:34;96132.25;;;8.55;100.00
71457;BME280;59263;48.160;11.752;2023-05-09T02:42:11;96155.41;;;8.66;100.00
71457;BME280;59263;48.160;11.752;2023-05-09T02:44:37;96154.16;;;8.61;100.00
71457;BME280;59263;48.160;11.752;2023-05-09T02:47:06;96153.25;;;8.51;100.00
71457;BME280;59263;48.160;11.752;2023-05-09T02:49:32;96153.69;;;8.56;100.00
71457;BME280;59263;48.160;11.752;2023-05-09T02:51:58;96154.88;;;8.52;100.00
71457;BME280;59263;48.160;11.752;2023-05-09T02:54:23;96150.09;;;8.47;100.00
71457;BME280;59263;48.160;11.752;2023-05-09T02:56:49;96162.13;;;8.58;100.00
71457;BME280;59263;48.160;11.752;2023-05-09T02:59:14;96157.22;;;8.55;100.00
71457;BME280;59263;48.160;11.752;2023-05-09T03:01:40;96151.56;;;8.61;100.00
71457;BME280;59263;48.160;11.752;2023-05-09T03:04:05;96150.66;;;8.51;100.00
71457;BME280;59263;48.160;11.752;2023-05-09T03:06:31;96150.19;;;8.34;100.00
71457;BME280;59263;48.160;11.752;2023-05-09T03:08:56;96136.66;;;8.21;100.00
71457;BME280;59263;48.160;11.752;2023-05-09T03:11:22;96163.09;;;8.23;100.00
71457;BME280;59263;48.160;11.752;2023-05-09T03:13:47;96157.88;;;8.13;100.00
71457;BME280;59263;48.160;11.752;2023-05-09T03:16:13;96163.97;;;8.12;100.00
71457;BME280;59263;48.160;11.752;2023-05-09T03:18:39;96161.50;;;7.99;100.00
71457;BME280;59263;48.160;11.752;2023-05-09T03:21:04;96102.06;;;7.58;100.00
71457;BME280;59263;48.160;11.752;2023-05-09T03:23:30;96165.63;;;8.02;100.00
71457;BME280;59263;48.160;11.752;2023-05-09T03:25:55;96136.69;;;7.87;100.00
71457;BME280;59263;48.160;11.752;2023-05-09T03:28:20;96153.56;;;7.91;100.00
71457;BME280;59263;48.160;11.752;2023-05-09T03:30:46;96147.38;;;7.83;100.00
71457;BME280;59263;48.160;11.752;2023-05-09T03:33:11;96134.81;;;7.78;100.00
71457;BME280;59263;48.160;11.752;2023-05-09T03:35:36;96151.66;;;7.93;100.00
71457;BME280;59263;48.160;11.752;2023-05-09T03:38:01;96151.66;;;7.93;100.00
71457;BME280;59263;48.160;11.752;2023-05-09T03:40:27;96126.63;;;7.84;100.00
71457;BME280;59263;48.160;11.752;2023-05-09T03:42:52;96144.19;;;7.90;100.00
71457;BME280;59263;48.160;11.752;2023-05-09T03:45:17;96122.06;;;7.76;100.00
71457;BME280;59263;48.160;11.752;2023-05-09T03:47:43;96136.47;;;7.90;100.00
71457;BME280;59263;48.160;11.752;2023-05-09T03:50:09;96138.69;;;7.95;100.00
71457;BME280;59263;48.160;11.752;2023-05-09T03:52:34;96104.41;;;7.72;100.00
71457;BME280;59263;48.160;11.752;2023-05-09T03:55:01;96157.41;;;7.97;100.00
71457;BME280;59263;48.160;11.752;2023-05-09T03:57:26;96162.47;;;7.87;100.00
71457;BME280;59263;48.160;11.752;2023-05-09T03:59:52;96148.88;;;7.85;100.00
71457;BME280;59263;48.160;11.752;2023-05-09T04:02:17;96160.09;;;7.95;100.00
71457;BME280;59263;48.160;11.752;2023-05-09T04:04:42;96132.00;;;7.81;100.00
71457;BME280;59263;48.160;11.752;2023-05-09T04:07:08;96127.00;;;7.68;100.00
71457;BME280;59263;48.160;11.752;2023-05-09T04:09:34;96152.16;;;7.87;100.00
71457;BME280;59263;48.160;11.752;2023-05-09T04:11:59;96155.41;;;7.89;100.00
71457;BME280;59263;48.160;11.752;2023-05-09T04:14:25;96134.56;;;7.92;100.00
71457;BME280;59263;48.160;11.752;2023-05-09T04:16:50;96162.91;;;8.04;100.00
71457;BME280;59263;48.160;11.752;2023-05-09T04:19:15;96160.09;;;7.95;100.00
71457;BME280;59263;48.160;11.752;2023-05-09T04:21:41;96161.97;;;7.93;100.00
71457;BME280;59263;48.160;11.752;2023-05-09T04:24:06;96156.81;;;7.93;100.00
71457;BME280;59263;48.160;11.752;2023-05-09T04:26:32;96117.03;;;7.64;100.00
71457;BME280;59263;48.160;11.752;2023-05-09T04:29:02;96155.69;;;7.86;100.00
71457;BME280;59263;48.160;11.752;2023-05-09T04:31:27;96173.94;;;7.94;100.00
71457;BME280;59263;48.160;11.752;2023-05-09T04:33:53;96165.25;;;7.95;100.00
71457;BME280;59263;48.160;11.752;2023-05-09T04:36:18;96153.31;;;8.06;100.00
71457;BME280;59263;48.160;11.752;2023-05-09T04:38:43;96167.44;;;8.22;100.00
71457;BME280;59263;48.160;11.752;2023-05-09T04:41:08;96162.78;;;8.28;100.00
71457;BME280;59263;48.160;11.752;2023-05-09T04:43:34;96122.59;;;8.14;100.00
71457;BME280;59263;48.160;11.752;2023-05-09T04:45:59;96156.81;;;8.38;100.00
71457;BME280;59263;48.160;11.752;2023-05-09T04:48:24;96133.34;;;8.30;100.00
71457;BME280;59263;48.160;11.752;2023-05-09T04:50:50;96125.88;;;8.38;100.00
71457;BME280;59263;48.160;11.752;2023-05-09T04:53:15;96118.91;;;8.50;100.00
71457;BME280;59263;48.160;11.752;2023-05-09T04:55:40;96127.38;;;8.73;100.00
71457;BME280;59263;48.160;11.752;2023-05-09T04:58:08;96132.72;;;8.81;100.00
71457;BME280;59263;48.160;11.752;2023-05-09T05:00:33;96117.56;;;8.88;100.00
71457;BME280;59263;48.160;11.752;2023-05-09T05:02:58;96110.00;;;8.96;100.00
71457;BME280;59263;48.160;11.752;2023-05-09T05:05:24;96100.50;;;8.96;100.00
71457;BME280;59263;48.160;11.752;2023-05-09T05:07:49;96106.97;;;9.12;100.00
71457;BME280;59263;48.160;11.752;2023-05-09T05:10:14;96116.66;;;9.19;100.00
71457;BME280;59263;48.160;11.752;2023-05-09T05:12:40;96101.63;;;9.25;100.00
71457;BME280;59263;48.160;11.752;2023-05-09T05:15:05;96114.06;;;9.40;100.00
71457;BME280;59263;48.160;11.752;2023-05-09T05:17:31;96100.66;;;9.47;100.00
71457;BME280;59263;48.160;11.752;2023-05-09T05:19:56;96101.78;;;9.54;100.00
71457;BME280;59263;48.160;11.752;2023-05-09T05:22:22;96078.38;;;9.45;100.00
71457;BME280;59263;48.160;11.752;2023-05-09T05:24:48;96104.94;;;9.67;100.00
71457;BME280;59263;48.160;11.752;2023-05-09T05:27:13;96099.00;;;9.76;100.00
71457;BME280;59263;48.160;11.752;2023-05-09T05:29:39;96105.56;;;9.90;100.00
71457;BME280;59263;48.160;11.752;2023-05-09T05:32:04;96111.03;;;9.97;100.00
71457;BME280;59263;48.160;11.752;2023-05-09T05:34:29;96094.72;;;10.06;100.00
71457;BME280;59263;48.160;11.752;2023-05-09T05:36:55;96108.50;;;10.16;100.00
71457;BME280;59263;48.160;11.752;2023-05-09T05:39:20;96084.38;;;10.06;100.00
71457;BME280;59263;48.160;11.752;2023-05-09T05:41:46;96085.22;;;10.16;100.00
71457;BME280;59263;48.160;11.752;2023-05-09T05:44:11;96103.47;;;10.24;100.00
71457;BME280;59263;48.160;11.752;2023-05-09T05:46:36;96074.34;;;10.22;100.00
71457;BME280;59263;48.160;11.752;2023-05-09T05:49:02;96107.47;;;10.48;100.00
71457;BME280;59263;48.160;11.752;2023-05-09T05:51:27;96095.06;;;10.41;100.00
71457;BME280;59263;48.160;11.752;2023-05-09T05:53:52;96113.59;;;10.66;100.00
71457;BME280;59263;48.160;11.752;2023-05-09T05:56:18;96082.31;;;10.50;100.00
71457;BME280;59263;48.160;11.752;2023-05-09T05:58:43;96099.19;;;10.73;100.00
71457;BME280;59263;48.160;11.752;2023-05-09T06:01:08;96068.66;;;10.77;100.00
71457;BME280;59263;48.160;11.752;2023-05-09T06:03:34;96077.09;;;10.88;100.00
71457;BME280;59263;48.160;11.752;2023-05-09T06:05:59;96073.13;;;10.94;100.00
71457;BME280;59263;48.160;11.752;2023-05-09T06:08:24;96085.22;;;11.13;100.00
71457;BME280;59263;48.160;11.752;2023-05-09T06:10:50;96077.28;;;11.24;100.00
71457;BME280;59263;48.160;11.752;2023-05-09T06:13:15;96070.88;;;11.28;100.00
71457;BME280;59263;48.160;11.752;2023-05-09T06:15:40;96061.16;;;11.40;100.00
71457;BME280;59263;48.160;11.752;2023-05-09T06:18:06;96070.91;;;11.56;100.00
71457;BME280;59263;48.160;11.752;2023-05-09T06:20:31;96062.41;;;11.63;100.00
71457;BME280;59263;48.160;11.752;2023-05-09T06:22:56;96068.38;;;11.83;100.00
71457;BME280;59263;48.160;11.752;2023-05-09T06:25:22;96068.59;;;11.90;100.00
71457;BME280;59263;48.160;11.752;2023-05-09T06:27:47;96058.72;;;11.94;100.00
71457;BME280;59263;48.160;11.752;2023-05-09T06:30:13;96059.78;;;12.01;100.00
71457;BME280;59263;48.160;11.752;2023-05-09T06:32:38;96045.00;;;12.11;100.00
71457;BME280;59263;48.160;11.752;2023-05-09T06:35:04;96063.31;;;12.27;100.00
71457;BME280;59263;48.160;11.752;2023-05-09T06:37:33;96043.38;;;12.28;100.00
71457;BME280;59263;48.160;11.752;2023-05-09T06:39:58;96048.53;;;12.46;100.00
71457;BME280;59263;48.160;11.752;2023-05-09T06:42:23;96047.31;;;12.50;100.00
71457;BME280;59263;48.160;11.752;2023-05-09T06:44:49;96041.97;;;12.51;100.00
71457;BME280;59263;48.160;11.752;2023-05-09T06:47:14;96033.66;;;12.66;100.00
71457;BME280;59263;48.160;11.752;2023-05-09T06:49:39;96000.03;;;12.64;100.00
71457;BME280;59263;48.160;11.752;2023-05-09T06:52:05;96018.97;;;12.82;100.00
71457;BME280;59263;48.160;11.752;2023-05-09T06:54:30;96024.59;;;12.96;100.00
71457;BME280;59263;48.160;11.752;2023-05-09T06:56:55;96000.56;;;12.94;100.00
71457;BME280;59263;48.160;11.752;2023-05-09T06:59:21;96034.94;;;13.31;100.00
71457;BME280;59263;48.160;11.752;2023-05-09T07:01:46;95997.53;;;13.24;100.00
71457;BME280;59263;48.160;11.752;2023-05-09T07:04:11;95993.72;;;13.45;100.00
71457;BME280;59263;48.160;11.752;2023-05-09T07:06:37;95970.09;;;13.30;100.00
71457;BME280;59263;48.160;11.752;2023-05-09T07:09:02;95988.41;;;13.54;100.00
71457;BME280;59263;48.160;11.752;2023-05-09T07:11:35;95979.78;;;13.54;100.00
71457;BME280;59263;48.160;11.752;2023-05-09T07:14:01;95977.50;;;13.59;100.00
71457;BME280;59263;48.160;11.752;2023-05-09T07:16:27;95968.63;;;13.86;100.00
71457;BME280;59263;48.160;11.752;2023-05-09T07:18:54;95963.63;;;14.01;100.00
71457;BME280;59263;48.160;11.752;2023-05-09T07:21:19;95989.50;;;14.27;100.00
71457;BME280;59263;48.160;11.752;2023-05-09T07:23:44;95970.78;;;14.07;100.00
71457;BME280;59263;48.160;11.752;2023-05-09T07:26:10;96002.06;;;14.32;100.00
71457;BME280;59263;48.160;11.752;2023-05-09T07:28:35;96000.28;;;14.48;100.00
71457;BME280;59263;48.160;11.752;2023-05-09T07:31:00;95983.53;;;14.59;100.00
71457;BME280;59263;48.160;11.752;2023-05-09T07:33:26;95981.56;;;14.77;100.00
71457;BME280;59263;48.160;11.752;2023-05-09T07:35:51;95949.03;;;14.73;100.00
71457;BME280;59263;48.160;11.752;2023-05-09T07:38:17;95979.09;;;15.00;100.00
71457;BME280;59263;48.160;11.752;2023-05-09T07:40:42;95988.34;;;15.11;100.00
71457;BME280;59263;48.160;11.752;2023-05-09T07:43:07;95946.53;;;14.88;100.00
71457;BME280;59263;48.160;11.752;2023-05-09T07:45:33;95989.34;;;15.10;100.00
71457;BME280;59263;48.160;11.752;2023-05-09T07:47:58;95984.75;;;15.12;100.00
71457;BME280;59263;48.160;11.752;2023-05-09T07:50:24;95953.19;;;14.99;100.00
71457;BME280;59263;48.160;11.752;2023-05-09T07:52:49;95965.19;;;15.24;100.00
71457;BME280;59263;48.160;11.752;2023-05-09T07:55:16;95967.13;;;15.22;100.00
71457;BME280;59263;48.160;11.752;2023-05-09T07:57:41;95930.50;;;15.16;100.00
71457;BME280;59263;48.160;11.752;2023-05-09T08:00:07;95945.84;;;15.50;100.00
71457;BME280;59263;48.160;11.752;2023-05-09T08:02:33;95958.56;;;15.45;100.00
71457;BME280;59263;48.160;11.752;2023-05-09T08:04:59;95920.25;;;15.14;100.00
71457;BME280;59263;48.160;11.752;2023-05-09T08:07:24;95954.25;;;15.29;100.00
71457;BME280;59263;48.160;11.752;2023-05-09T08:09:50;95937.22;;;15.10;100.00
71457;BME280;59263;48.160;11.752;2023-05-09T08:12:15;95955.66;;;15.40;100.00
71457;BME280;59263;48.160;11.752;2023-05-09T08:14:40;95927.03;;;15.32;100.00
71457;BME280;59263;48.160;11.752;2023-05-09T08:17:06;95925.38;;;15.31;100.00
71457;BME280;59263;48.160;11.752;2023-05-09T08:19:31;95897.72;;;15.21;100.00
71457;BME280;59263;48.160;11.752;2023-05-09T08:21:56;95929.06;;;15.44;100.00
71457;BME280;59263;48.160;11.752;2023-05-09T08:24:22;95891.56;;;15.14;100.00
71457;BME280;59263;48.160;11.752;2023-05-09T08:26:47;95926.88;;;15.56;100.00
71457;BME280;59263;48.160;11.752;2023-05-09T08:29:12;95919.03;;;15.64;100.00
71457;BME280;59263;48.160;11.752;2023-05-09T08:31:38;95864.69;;;15.45;100.00
71457;BME280;59263;48.160;11.752;2023-05-09T08:34:04;95895.47;;;16.04;100.00
71457;BME280;59263;48.160;11.752;2023-05-09T08:36:29;95888.84;;;16.16;100.00
71457;BME280;59263;48.160;11.752;2023-05-09T08:38:55;95873.09;;;16.09;100.00
71457;BME280;59263;48.160;11.752;2023-05-09T08:41:24;95928.72;;;16.33;100.00
71457;BME280;59263;48.160;11.752;2023-05-09T08:43:53;95901.63;;;16.11;100.00
71457;BME280;59263;48.160;11.752;2023-05-09T08:46:24;95913.81;;;16.18;100.00
71457;BME280;59263;48.160;11.752;2023-05-09T08:48:53;95903.31;;;16.41;100.00
71457;BME280;59263;48.160;11.752;2023-05-09T08:51:19;95872.63;;;16.58;100.00
71457;BME280;59263;48.160;11.752;2023-05-09T08:53:45;95896.81;;;16.90;100.00
71457;BME280;59263;48.160;11.752;2023-05-09T08:56:11;95885.19;;;16.92;100.00
71457;BME280;59263;48.160;11.752;2023-05-09T08:58:37;95856.81;;;16.75;100.00
71457;BME280;59263;48.160;11.752;2023-05-09T09:01:03;95869.78;;;16.98;100.00
71457;BME280;59263;48.160;11.752;2023-05-09T09:03:31;95894.84;;;17.22;100.00
71457;BME280;59263;48.160;11.752;2023-05-09T09:05:57;95868.25;;;17.18;100.00
71457;BME280;59263;48.160;11.752;2023-05-09T09:08:22;95884.88;;;17.47;100.00
71457;BME280;59263;48.160;11.752;2023-05-09T09:10:48;95877.72;;;17.55;100.00
71457;BME280;59263;48.160;11.752;2023-05-09T09:13:15;95869.13;;;17.61;100.00
71457;BME280;59263;48.160;11.752;2023-05-09T09:15:43;95858.91;;;17.66;100.00
71457;BME280;59263;48.160;11.752;2023-05-09T09:18:12;95829.97;;;17.53;100.00
71457;BME280;59263;48.160;11.752;2023-05-09T09:20:45;95839.78;;;17.66;100.00
71457;BME280;59263;48.160;11.752;2023-05-09T09:23:16;95846.38;;;17.77;100.00
71457;BME280;59263;48.160;11.752;2023-05-09T09:25:45;95818.47;;;17.69;100.00
71457;BME280;59263;48.160;11.752;2023-05-09T09:28:10;95850.16;;;17.96;100.00
71457;BME280;59263;48.160;11.752;2023-05-09T09:30:42;95836.81;;;17.90;100.00
71457;BME280;59263;48.160;11.752;2023-05-09T09:33:08;95826.59;;;17.96;100.00
71457;BME280;59263;48.160;11.752;2023-05-09T09:35:37;95815.84;;;18.12;100.00
71457;BME280;59263;48.160;11.752;2023-05-09T09:38:05;95815.25;;;18.17;100.00
71457;BME280;59263;48.160;11.752;2023-05-09T09:40:30;95831.72;;;18.32;100.00
71457;BME280;59263;48.160;11.752;2023-05-09T09:42:55;95821.91;;;18.41;100.00
71457;BME280;59263;48.160;11.752;2023-05-09T09:45:21;95821.63;;;18.63;100.00
71457;BME280;59263;48.160;11.752;2023-05-09T09:47:47;95805.69;;;18.58;100.00
71457;BME280;59263;48.160;11.752;2023-05-09T09:50:18;95802.91;;;18.67;100.00
71457;BME280;59263;48.160;11.752;2023-05-09T09:55:16;95809.63;;;18.76;100.00
71457;BME280;59263;48.160;11.752;2023-05-09T09:57:42;95799.13;;;18.76;100.00
71457;BME280;59263;48.160;11.752;2023-05-09T10:00:13;95806.59;;;18.79;100.00
71457;BME280;59263;48.160;11.752;2023-05-09T10:03:06;95812.94;;;18.91;100.00
71457;BME280;59263;48.160;11.752;2023-05-09T10:05:38;95798.00;;;18.98;100.00
71457;BME280;59263;48.160;11.752;2023-05-09T10:08:04;95784.50;;;19.01;100.00
71457;BME280;59263;48.160;11.752;2023-05-09T10:10:35;95773.56;;;18.84;100.00
71457;BME280;59263;48.160;11.752;2023-05-09T10:13:03;95780.22;;;18.87;100.00
71457;BME280;59263;48.160;11.752;2023-05-09T10:15:30;95778.25;;;18.96;100.00
71457;BME280;59263;48.160;11.752;2023-05-09T10:17:57;95777.31;;;19.10;100.00
71457;BME280;59263;48.160;11.752;2023-05-09T10:20:23;95768.59;;;19.09;100.00
71457;BME280;59263;48.160;11.752;2023-05-09T10:23:01;95766.78;;;19.03;100.00
71457;BME280;59263;48.160;11.752;2023-05-09T10:25:57;95731.47;;;18.99;100.00
71457;BME280;59263;48.160;11.752;2023-05-09T10:28:30;95766.84;;;19.30;100.00
71457;BME280;59263;48.160;11.752;2023-05-09T10:31:00;95771.50;;;19.34;100.00
71457;BME280;59263;48.160;11.752;2023-05-09T10:33:42;95725.66;;;19.24;100.00
71457;BME280;59263;48.160;11.752;2023-05-09T10:36:10;95742.03;;;19.39;100.00
71457;BME280;59263;48.160;11.752;2023-05-09T10:38:37;95744.06;;;19.37;100.00
71457;BME280;59263;48.160;11.752;2023-05-09T10:41:03;95704.47;;;19.19;100.00
71457;BME280;59263;48.160;11.752;2023-05-09T10:43:31;95745.28;;;19.48;100.00
71457;BME280;59263;48.160;11.752;2023-05-09T10:45:57;95714.16;;;19.25;100.00
71457;BME280;59263;48.160;11.752;2023-05-09T10:48:23;95690.53;;;19.18;100.00
71457;BME280;59263;48.160;11.752;2023-05-09T10:50:49;95696.81;;;19.37;100.00
71457;BME280;59263;48.160;11.752;2023-05-09T10:53:15;95715.81;;;19.52;100.00
71457;BME280;59263;48.160;11.752;2023-05-09T10:55:55;95725.13;;;19.75;100.00
71457;BME280;59263;48.160;11.752;2023-05-09T10:58:25;95716.66;;;19.73;100.00
71457;BME280;59263;48.160;11.752;2023-05-09T11:00:52;95721.09;;;19.79;100.00
71457;BME280;59263;48.160;11.752;2023-05-09T11:03:19;95708.97;;;19.71;100.00
71457;BME280;59263;48.160;11.752;2023-05-09T11:05:51;95692.41;;;19.71;100.00
71457;BME280;59263;48.160;11.752;2023-05-09T11:08:26;95702.09;;;19.83;100.00
71457;BME280;59263;48.160;11.752;2023-05-09T11:10:53;95706.13;;;19.99;100.00
71457;BME280;59263;48.160;11.752;2023-05-09T11:13:29;95691.97;;;20.00;100.00
71457;BME280;59263;48.160;11.752;2023-05-09T11:18:23;95670.16;;;19.93;100.00
71457;BME280;59263;48.160;11.752;2023-05-09T11:20:49;95669.94;;;20.01;100.00
71457;BME280;59263;48.160;11.752;2023-05-09T11:23:17;95671.75;;;20.08;100.00
71457;BME280;59263;48.160;11.752;2023-05-09T11:25:48;95670.94;;;20.07;100.00
71457;BME280;59263;48.160;11.752;2023-05-09T11:28:31;95652.75;;;20.05;100.00
71457;BME280;59263;48.160;11.752;2023-05-09T11:31:15;95657.19;;;20.12;100.00
71457;BME280;59263;48.160;11.752;2023-05-09T11:33:42;95624.13;;;19.84;100.00
71457;BME280;59263;48.160;11.752;2023-05-09T11:36:27;95645.88;;;20.04;100.00
71457;BME280;59263;48.160;11.752;2023-05-09T11:39:08;95619.22;;;20.01;100.00
71457;BME280;59263;48.160;11.752;2023-05-09T11:41:44;95620.78;;;20.22;100.00
71457;BME280;59263;48.160;11.752;2023-05-09T11:44:18;95622.00;;;20.19;100.00
71457;BME280;59263;48.160;11.752;2023-05-09T11:46:48;95617.75;;;20.25;100.00
71457;BME280;59263;48.160;11.752;2023-05-09T11:49:14;95604.22;;;20.15;100.00
71457;BME280;59263;48.160;11.752;2023-05-09T11:51:40;95609.09;;;20.18;100.00
71457;BME280;59263;48.160;11.752;2023-05-09T11:54:07;95598.97;;;20.15;100.00
71457;BME280;59263;48.160;11.752;2023-05-09T11:56:38;95572.56;;;19.96;100.00
71457;BME280;59263;48.160;11.752;2023-05-09T11:59:04;95603.03;;;20.17;100.00
71457;BME280;59263;48.160;11.752;2023-05-09T12:01:29;95561.06;;;19.91;100.00
71457;BME280;59263;48.160;11.752;2023-05-09T12:03:56;95592.53;;;20.11;100.00
71457;BME280;59263;48.160;11.752;2023-05-09T12:06:22;95594.28;;;20.23;100.00
71457;BME280;59263;48.160;11.752;2023-05-09T12:08:47;95598.13;;;20.21;100.00
71457;BME280;59263;48.160;11.752;2023-05-09T12:11:13;95569.22;;;20.21;100.00
71457;BME280;59263;48.160;11.752;2023-05-09T12:13:47;95587.19;;;20.30;100.00
71457;BME280;59263;48.160;11.752;2023-05-09T12:16:14;95563.03;;;20.09;100.00
71457;BME280;59263;48.160;11.752;2023-05-09T12:18:45;95542.78;;;20.16;100.00
71457;BME280;59263;48.160;11.752;2023-05-09T12:21:10;95547.47;;;20.14;100.00
71457;BME280;59263;48.160;11.752;2023-05-09T12:23:36;95570.97;;;20.40;100.00
71457;BME280;59263;48.160;11.752;2023-05-09T12:26:02;95568.94;;;20.36;100.00
71457;BME280;59263;48.160;11.752;2023-05-09T12:28:27;95531.44;;;20.22;100.00
71457;BME280;59263;48.160;11.752;2023-05-09T12:30:53;95558.25;;;20.37;100.00
71457;BME280;59263;48.160;11.752;2023-05-09T12:33:19;95540.69;;;20.31;100.00
71457;BME280;59263;48.160;11.752;2023-05-09T12:35:48;95549.59;;;20.30;100.00
71457;BME280;59263;48.160;11.752;2023-05-09T12:38:27;95508.88;;;20.08;100.00
71457;BME280;59263;48.160;11.752;2023-05-09T12:41:25;95483.78;;;20.12;100.00
71457;BME280;59263;48.160;11.752;2023-05-09T12:43:56;95538.19;;;20.43;100.00
71457;BME280;59263;48.160;11.752;2023-05-09T12:46:28;95439.09;;;19.80;100.00
71457;BME280;59263;48.160;11.752;2023-05-09T12:48:53;95477.34;;;20.08;100.00
71457;BME280;59263;48.160;11.752;2023-05-09T12:51:20;95521.63;;;20.42;100.00
71457;BME280;59263;48.160;11.752;2023-05-09T12:53:45;95495.47;;;20.22;100.00
71457;BME280;59263;48.160;11.752;2023-05-09T12:56:13;95491.34;;;20.33;100.00
71457;BME280;59263;48.160;11.752;2023-05-09T12:58:39;95513.91;;;20.47;100.00